Time;durP1;ratioP1;P1;durP2;ratioP2;P2;SDS_P1;SDS_P2;PMS_P1;PMS_P2;Temp;Humidity;BMP_temperature;BMP_pressure;BME280_temperature;BME280_humidity;BME280_pressure;Samples;Min_cycle;Max_cycle;Signal;HPM_P1;HPM_P2
2022/12/04 00:03:17;;;;;;;;;;;;;;;0.91;86.8291;102111.5;;;;-75
2022/12/04 00:05:33;;;;;;;23.1;8.5;;;;;;;;;;;;;-75
2022/12/04 00:08:17;;;;;;;;;;;;;;;0.89;86.77148;102107;;;;-76
2022/12/04 00:13:18;;;;;;;;;;;;;;;0.92;86.7334;102100;;;;-75
2022/12/04 00:18:17;;;;;;;;;;;;;;;0.86;86.83984;102094;;;;-75
2022/12/04 00:23:17;;;;;;;;;;;;;;;0.85;87.04297;102101.7;;;;-76
2022/12/04 00:28:17;;;;;;;;;;;;;;;0.85;86.86133;102096.3;;;;-77
2022/12/04 00:33:17;;;;;;;;;;;;;;;0.82;86.90723;102101.5;;;;-77
2022/12/04 00:35:32;;;;;;;26.1;8.9;;;;;;;;;;;;;-74
2022/12/04 00:38:17;;;;;;;;;;;;;;;0.82;86.85156;102098.2;;;;-75
2022/12/04 00:43:17;;;;;;;;;;;;;;;0.83;86.73535;102103.3;;;;-74
2022/12/04 00:48:17;;;;;;;;;;;;;;;0.79;87.01953;102095.8;;;;-75
2022/12/04 00:53:17;;;;;;;;;;;;;;;0.81;86.87402;102090.1;;;;-74
2022/12/04 00:58:17;;;;;;;;;;;;;;;0.79;87.00977;102085.6;;;;-73
2022/12/04 01:03:17;;;;;;;;;;;;;;;0.83;86.81055;102089.7;;;;-74
2022/12/04 01:05:31;;;;;;;25;8.9;;;;;;;;;;;;;-75
2022/12/04 01:08:17;;;;;;;;;;;;;;;0.79;86.91309;102089.7;;;;-75
2022/12/04 01:13:17;;;;;;;;;;;;;;;0.79;87.01953;102089;;;;-76
2022/12/04 01:18:17;;;;;;;;;;;;;;;0.82;87.03711;102081.3;;;;-75
2022/12/04 01:23:17;;;;;;;;;;;;;;;0.83;86.9209;102089.5;;;;-75
2022/12/04 01:28:17;;;;;;;;;;;;;;;0.83;86.94238;102083.1;;;;-74
2022/12/04 01:33:17;;;;;;;;;;;;;;;0.84;86.94434;102076.7;;;;-74
2022/12/04 01:35:30;;;;;;;26.1;9.5;;;;;;;;;;;;;-75
2022/12/04 01:38:17;;;;;;;;;;;;;;;0.83;87.00684;102072.1;;;;-75
2022/12/04 01:43:17;;;;;;;;;;;;;;;0.86;86.9043;102072.2;;;;-74
2022/12/04 01:48:19;;;;;;;;;;;;;;;0.86;87.03418;102068.3;;;;-75
2022/12/04 01:53:17;;;;;;;;;;;;;;;0.85;87.09668;102065.4;;;;-74
2022/12/04 01:58:18;;;;;;;;;;;;;;;0.87;87.01367;102067.4;;;;-74
2022/12/04 02:03:17;;;;;;;;;;;;;;;0.87;86.99219;102061.5;;;;-74
2022/12/04 02:05:29;;;;;;;26.7;9.4;;;;;;;;;;;;;-75
2022/12/04 02:08:17;;;;;;;;;;;;;;;0.88;86.99609;102062;;;;-75
2022/12/04 02:13:23;;;;;;;;;;;;;;;0.88;86.96387;102059.4;;;;-75
2022/12/04 02:18:19;;;;;;;;;;;;;;;0.88;87.03906;102062.2;;;;-74
2022/12/04 02:23:31;;;;;;;;;;;;;;;0.9;87.03027;102062.4;;;;-74
2022/12/04 02:28:22;;;;;;;;;;;;;;;0.92;87.00195;102060.2;;;;-74
2022/12/04 02:33:20;;;;;;;;;;;;;;;0.94;86.93164;102063.7;;;;-74
2022/12/04 02:35:29;;;;;;;27.3;9.7;;;;;;;;;;;;;-75
2022/12/04 02:38:21;;;;;;;;;;;;;;;0.94;86.97461;102070;;;;-76
2022/12/04 02:43:20;;;;;;;;;;;;;;;0.94;86.98535;102064.4;;;;-75
2022/12/04 02:48:18;;;;;;;;;;;;;;;0.96;86.94824;102065.2;;;;-74
2022/12/04 02:53:19;;;;;;;;;;;;;;;0.95;86.94434;102064.3;;;;-75
2022/12/04 02:58:18;;;;;;;;;;;;;;;0.93;87.12207;102056.9;;;;-74
2022/12/04 03:03:19;;;;;;;;;;;;;;;0.97;86.94824;102067.1;;;;-75
2022/12/04 03:05:29;;;;;;;23.7;9.5;;;;;;;;;;;;;-75
2022/12/04 03:08:19;;;;;;;;;;;;;;;0.95;87.0957;102059.9;;;;-75
2022/12/04 03:13:19;;;;;;;;;;;;;;;0.96;87.0127;102056.9;;;;-76
2022/12/04 03:18:19;;;;;;;;;;;;;;;0.95;87.10645;102052.3;;;;-75
2022/12/04 03:23:19;;;;;;;;;;;;;;;0.96;87.09766;102041.8;;;;-75
2022/12/04 03:28:19;;;;;;;;;;;;;;;0.97;87.01465;102043;;;;-75
2022/12/04 03:33:19;;;;;;;;;;;;;;;0.95;87.14746;102044.2;;;;-75
2022/12/04 03:35:27;;;;;;;25.7;9.2;;;;;;;;;;;;;-74
2022/12/04 03:38:20;;;;;;;;;;;;;;;0.94;87.10449;102043.1;;;;-74
2022/12/04 03:43:19;;;;;;;;;;;;;;;0.96;86.93555;102038.6;;;;-75
2022/12/04 03:48:20;;;;;;;;;;;;;;;0.96;87.03223;102040;;;;-74
2022/12/04 03:53:21;;;;;;;;;;;;;;;0.95;87.00879;102037.3;;;;-74
2022/12/04 03:58:21;;;;;;;;;;;;;;;0.94;87.1582;102035.6;;;;-75
2022/12/04 04:03:18;;;;;;;;;;;;;;;0.94;87.22363;102034;;;;-75
2022/12/04 04:05:25;;;;;;;28.7;10.7;;;;;;;;;;;;;-74
2022/12/04 04:08:32;;;;;;;;;;;;;;;0.96;87.09961;102030.7;;;;-74
2022/12/04 04:28:27;;;;;;;;;;;;;;;1.01;87.02051;102032.7;;;;-74
2022/12/04 04:33:20;;;;;;;;;;;;;;;1;86.99902;102028.8;;;;-75
2022/12/04 04:35:25;;;;;;;29.3;10.1;;;;;;;;;;;;;-76
2022/12/04 04:38:21;;;;;;;;;;;;;;;0.98;87.12305;102028.3;;;;-75
2022/12/04 04:43:21;;;;;;;;;;;;;;;0.98;87.1875;102032.1;;;;-75
2022/12/04 04:48:18;;;;;;;;;;;;;;;0.97;87.16602;102030;;;;-74
2022/12/04 04:53:20;;;;;;;;;;;;;;;0.96;87.16406;102028.9;;;;-76
2022/12/04 04:58:19;;;;;;;;;;;;;;;0.97;87.1748;102025.2;;;;-74
2022/12/04 05:03:16;;;;;;;;;;;;;;;1;87.12695;102028.2;;;;-75
2022/12/04 05:05:22;;;;;;;30.2;10.5;;;;;;;;;;;;;-75
2022/12/04 05:08:16;;;;;;;;;;;;;;;0.97;87.2832;102033.5;;;;-75
2022/12/04 05:13:17;;;;;;;;;;;;;;;0.99;87.2002;102035.2;;;;-75
2022/12/04 05:18:16;;;;;;;;;;;;;;;0.97;87.2832;102035.1;;;;-74
2022/12/04 05:23:17;;;;;;;;;;;;;;;0.98;87.21973;102038.7;;;;-75
2022/12/04 05:28:17;;;;;;;;;;;;;;;0.97;87.39063;102041.7;;;;-75
2022/12/04 05:33:16;;;;;;;;;;;;;;;0.99;87.25391;102043.7;;;;-74
2022/12/04 05:35:21;;;;;;;29.3;10.8;;;;;;;;;;;;;-75
2022/12/04 05:38:20;;;;;;;;;;;;;;;0.99;87.2002;102047.6;;;;-74
2022/12/04 05:43:17;;;;;;;;;;;;;;;1.01;87.16211;102049.3;;;;-75
2022/12/04 05:48:16;;;;;;;;;;;;;;;1;87.21484;102049.2;;;;-74
2022/12/04 05:53:16;;;;;;;;;;;;;;;1.02;87.19531;102045.1;;;;-73
2022/12/04 05:58:17;;;;;;;;;;;;;;;0.99;87.22168;102042.5;;;;-75
2022/12/04 06:03:17;;;;;;;;;;;;;;;1;87.29004;102046.5;;;;-75
2022/12/04 06:05:20;;;;;;;31.2;10.4;;;;;;;;;;;;;-72
2022/12/04 06:08:17;;;;;;;;;;;;;;;0.98;87.26465;102054.3;;;;-76
2022/12/04 06:13:17;;;;;;;;;;;;;;;1;87.17188;102062.4;;;;-77
2022/12/04 06:18:16;;;;;;;;;;;;;;;0.99;87.22363;102059.9;;;;-75
2022/12/04 06:23:17;;;;;;;;;;;;;;;0.97;87.25;102059;;;;-75
2022/12/04 06:28:17;;;;;;;;;;;;;;;0.99;87.24316;102059.6;;;;-76
2022/12/04 06:33:17;;;;;;;;;;;;;;;0.97;87.32813;102054.3;;;;-74
2022/12/04 06:35:19;;;;;;;27.1;10.6;;;;;;;;;;;;;-76
2022/12/04 06:38:16;;;;;;;;;;;;;;;0.96;87.4209;102049.3;;;;-76
2022/12/04 06:43:17;;;;;;;;;;;;;;;0.96;87.39063;102050.4;;;;-74
2022/12/04 06:48:16;;;;;;;;;;;;;;;0.97;87.3584;102053;;;;-76
2022/12/04 06:53:29;;;;;;;;;;;;;;;0.97;87.45508;102054.5;;;;-75
2022/12/04 06:58:17;;;;;;;;;;;;;;;0.96;87.4668;102055.9;;;;-75
2022/12/04 07:03:17;;;;;;;;;;;;;;;0.96;87.50977;102051;;;;-74
2022/12/04 07:05:18;;;;;;;29.8;10.8;;;;;;;;;;;;;-75
2022/12/04 07:08:17;;;;;;;;;;;;;;;0.99;87.28809;102050.3;;;;-75
2022/12/04 07:13:17;;;;;;;;;;;;;;;0.96;87.50977;102050.1;;;;-75
2022/12/04 07:18:16;;;;;;;;;;;;;;;0.98;87.44824;102052.5;;;;-75
2022/12/04 07:23:17;;;;;;;;;;;;;;;0.97;87.40137;102048.6;;;;-76
2022/12/04 07:28:17;;;;;;;;;;;;;;;1;87.42871;102050.6;;;;-75
2022/12/04 07:33:17;;;;;;;;;;;;;;;1;87.46289;102054;;;;-76
2022/12/04 07:35:17;;;;;;;26.4;9.7;;;;;;;;;;;;;-75
2022/12/04 07:38:17;;;;;;;;;;;;;;;1.02;87.47559;102060.4;;;;-76
2022/12/04 07:43:17;;;;;;;;;;;;;;;1.02;87.50781;102058.9;;;;-75
2022/12/04 07:48:16;;;;;;;;;;;;;;;1.03;87.56543;102059.7;;;;-75
2022/12/04 07:53:16;;;;;;;;;;;;;;;1.03;87.46875;102065.6;;;;-75
2022/12/04 07:58:17;;;;;;;;;;;;;;;1.05;87.5498;102066.5;;;;-80
2022/12/04 08:03:16;;;;;;;;;;;;;;;1.05;87.50488;102067.4;;;;-75
2022/12/04 08:05:16;;;;;;;30.4;10.9;;;;;;;;;;;;;-75
2022/12/04 08:08:17;;;;;;;;;;;;;;;1.06;87.54102;102071.6;;;;-76
2022/12/04 08:13:17;;;;;;;;;;;;;;;1.06;87.48633;102074.8;;;;-74
2022/12/04 08:18:17;;;;;;;;;;;;;;;1.07;87.41309;102076.3;;;;-74
2022/12/04 08:23:17;;;;;;;;;;;;;;;1.07;87.48828;102079.4;;;;-75
2022/12/04 08:28:17;;;;;;;;;;;;;;;1.09;87.47949;102080.2;;;;-74
2022/12/04 08:33:17;;;;;;;;;;;;;;;1.1;87.4834;102080.9;;;;-76
2022/12/04 08:35:17;;;;;;;31.9;11.1;;;;;;;;;;;;;-74
2022/12/04 08:38:17;;;;;;;;;;;;;;;1.1;87.49414;102085.6;;;;-75
2022/12/04 08:43:18;;;;;;;;;;;;;;;1.1;87.56836;102090.8;;;;-75
2022/12/04 08:48:17;;;;;;;;;;;;;;;1.12;87.59277;102098.4;;;;-75
2022/12/04 08:53:17;;;;;;;;;;;;;;;1.14;87.42578;102096.5;;;;-76
2022/12/04 08:58:17;;;;;;;;;;;;;;;1.14;87.46973;102103.2;;;;-74
2022/12/04 09:03:19;;;;;;;;;;;;;;;1.14;87.52344;102097.6;;;;-74
2022/12/04 09:05:14;;;;;;;30.9;10;;;;;;;;;;;;;-76
2022/12/04 09:08:17;;;;;;;;;;;;;;;1.15;87.42773;102104.4;;;;-76
2022/12/04 09:13:16;;;;;;;;;;;;;;;1.16;87.49414;102106.4;;;;-75
2022/12/04 09:18:17;;;;;;;;;;;;;;;1.16;87.49414;102106;;;;-75
2022/12/04 09:23:20;;;;;;;;;;;;;;;1.17;87.50781;102115.8;;;;-75
2022/12/04 09:28:16;;;;;;;;;;;;;;;1.19;87.48926;102117.9;;;;-75
2022/12/04 09:33:17;;;;;;;;;;;;;;;1.16;87.57031;102119.4;;;;-74
2022/12/04 09:35:13;;;;;;;30.7;10.6;;;;;;;;;;;;;-75
2022/12/04 09:38:16;;;;;;;;;;;;;;;1.2;87.5127;102121.3;;;;-75
2022/12/04 09:43:25;;;;;;;;;;;;;;;1.22;87.46387;102116.7;;;;-76
2022/12/04 09:48:19;;;;;;;;;;;;;;;1.21;87.48438;102117.5;;;;-74
2022/12/04 09:53:18;;;;;;;;;;;;;;;1.2;87.51465;102116.8;;;;-74
2022/12/04 09:58:18;;;;;;;;;;;;;;;1.22;87.39746;102116;;;;-75
2022/12/04 10:03:19;;;;;;;;;;;;;;;1.23;87.47559;102109.4;;;;-76
2022/12/04 10:05:20;;;;;;;23.7;8.7;;;;;;;;;;;;;-74
2022/12/04 10:08:20;;;;;;;;;;;;;;;1.23;87.55273;102107.1;;;;-79
2022/12/04 10:13:24;;;;;;;;;;;;;;;1.25;87.49316;102108.3;;;;-76
2022/12/04 10:18:25;;;;;;;;;;;;;;;1.27;87.41992;102101.1;;;;-75
2022/12/04 10:23:22;;;;;;;;;;;;;;;1.29;87.37988;102097.2;;;;-75
2022/12/04 10:33:21;;;;;;;;;;;;;;;1.32;87.57129;102091;;;;-75
2022/12/04 10:38:23;;;;;;;;;;;;;;;1.36;87.53516;102096.8;;;;-74
2022/12/04 10:43:24;;;;;;;;;;;;;;;1.38;87.4873;102096.1;;;;-75
2022/12/04 10:48:23;;;;;;;;;;;;;;;1.42;87.5166;102093;;;;-76
2022/12/04 10:53:19;;;;;;;;;;;;;;;1.42;87.50488;102090.1;;;;-75
2022/12/04 10:58:24;;;;;;;;;;;;;;;1.44;87.40137;102084.7;;;;-75
2022/12/04 11:03:28;;;;;;;;;;;;;;;1.44;87.45508;102083.7;;;;-77
2022/12/04 11:05:21;;;;;;;20.4;6.7;;;;;;;;;;;;;-76
2022/12/04 11:08:23;;;;;;;;;;;;;;;1.42;87.27637;102078.5;;;;-77
2022/12/04 11:13:22;;;;;;;;;;;;;;;1.4;87.26367;102078.7;;;;-76
2022/12/04 11:18:21;;;;;;;;;;;;;;;1.4;87.11035;102081.7;;;;-75
2022/12/04 11:23:19;;;;;;;;;;;;;;;1.39;87.08887;102075.3;;;;-76
2022/12/04 11:28:20;;;;;;;;;;;;;;;1.38;87.2041;102065.4;;;;-76
2022/12/04 11:33:23;;;;;;;;;;;;;;;1.37;87.19141;102060;;;;-76
2022/12/04 11:35:20;;;;;;;18.9;6.7;;;;;;;;;;;;;-76
2022/12/04 11:38:20;;;;;;;;;;;;;;;1.37;87.06152;102062;;;;-76
2022/12/04 11:43:20;;;;;;;;;;;;;;;1.34;87.30469;102061.1;;;;-76
2022/12/04 11:48:21;;;;;;;;;;;;;;;1.35;87.19824;102061.1;;;;-77
2022/12/04 11:53:25;;;;;;;;;;;;;;;1.35;87.27441;102058.3;;;;-76
2022/12/04 12:00:08;;;;;;;;;;;;;;;1.48;86.84766;102043.5;;;;-75
2022/12/04 12:02:40;;;;;;;;;;;;;;;1.35;87.17676;102043.1;;;;-75
2022/12/04 12:07:43;;;;;;;;;;;;;;;1.35;87.27637;102048.9;;;;-76
2022/12/04 12:12:33;;;;;;;;;;;;;;;1.35;87.22168;102048.1;;;;-75
2022/12/04 12:22:36;;;;;;;;;;;;;;;1.35;87.18945;102050.1;;;;-75
2022/12/04 12:27:52;;;;;;;;;;;;;;;1.37;87.31055;102032.3;;;;-76
2022/12/04 12:42:55;;;;;;;;;;;;;;;1.45;87.24023;102030.4;;;;-74
2022/12/04 12:57:13;;;;;;;;;;;;;;;1.46;87.31836;102007.8;;;;-74
2022/12/04 13:01:32;;;;;;;;;;;;;;;1.39;87.15234;102007.7;;;;-77
2022/12/04 13:05:07;;;;;;;17.8;7;;;;;;;;;;;;;-77
2022/12/04 13:06:26;;;;;;;;;;;;;;;1.4;87.31641;102010;;;;-75
2022/12/04 13:11:25;;;;;;;;;;;;;;;1.4;87.26172;102004.5;;;;-76
2022/12/04 13:16:29;;;;;;;;;;;;;;;1.42;87.125;102006;;;;-76
2022/12/04 13:21:32;;;;;;;;;;;;;;;1.43;87.25879;102004.7;;;;-77
2022/12/04 13:26:34;;;;;;;;;;;;;;;1.43;87.29102;102000.7;;;;-75
2022/12/04 13:31:27;;;;;;;;;;;;;;;1.43;87.32324;102003.9;;;;-75
2022/12/04 13:35:07;;;;;;;19.9;7.5;;;;;;;;;;;;;-75
2022/12/04 13:36:37;;;;;;;;;;;;;;;1.44;87.28223;102003;;;;-76
2022/12/04 13:41:24;;;;;;;;;;;;;;;1.45;87.32715;102002.6;;;;-76
2022/12/04 13:46:40;;;;;;;;;;;;;;;1.45;87.35938;102006;;;;-76
2022/12/04 13:51:41;;;;;;;;;;;;;;;1.46;87.31836;101995.1;;;;-76
2022/12/04 13:56:31;;;;;;;;;;;;;;;1.47;87.42773;101998.8;;;;-76
2022/12/04 14:01:34;;;;;;;;;;;;;;;1.48;87.39746;101994.7;;;;-75
2022/12/04 14:05:10;;;;;;;23.4;8.6;;;;;;;;;;;;;-76
2022/12/04 14:06:28;;;;;;;;;;;;;;;1.48;87.39941;101991.7;;;;-76
2022/12/04 14:11:23;;;;;;;;;;;;;;;1.5;87.47852;101994.1;;;;-76
2022/12/04 14:16:25;;;;;;;;;;;;;;;1.5;87.51074;101981.3;;;;-76
2022/12/04 14:21:23;;;;;;;;;;;;;;;1.52;87.48242;101979.8;;;;-75
2022/12/04 14:26:34;;;;;;;;;;;;;;;1.53;87.49512;101979;;;;-75
2022/12/04 14:31:29;;;;;;;;;;;;;;;1.53;87.59277;101976.1;;;;-76
2022/12/04 14:35:04;;;;;;;25.6;9.6;;;;;;;;;;;;;-76
2022/12/04 14:36:26;;;;;;;;;;;;;;;1.55;87.5957;101981.4;;;;-76
2022/12/04 14:41:30;;;;;;;;;;;;;;;1.56;87.58691;101987.1;;;;-75
2022/12/04 14:46:29;;;;;;;;;;;;;;;1.56;87.54395;101986.6;;;;-77
2022/12/04 14:51:28;;;;;;;;;;;;;;;1.56;87.67383;101985.6;;;;-76
2022/12/04 14:56:26;;;;;;;;;;;;;;;1.57;87.57813;101994.2;;;;-75
2022/12/04 15:01:27;;;;;;;;;;;;;;;1.58;87.57129;102003.1;;;;-76
2022/12/04 15:05:05;;;;;;;23.4;9;;;;;;;;;;;;;-76
2022/12/04 15:06:27;;;;;;;;;;;;;;;1.59;87.5625;101999.4;;;;-76
2022/12/04 15:16:24;;;;;;;;;;;;;;;1.63;87.54785;102002.4;;;;-75
2022/12/04 15:21:23;;;;;;;;;;;;;;;1.63;87.5918;102001.9;;;;-75
2022/12/04 15:26:27;;;;;;;;;;;;;;;1.64;87.66699;102006.9;;;;-75
2022/12/04 15:31:25;;;;;;;;;;;;;;;1.65;87.5625;102005.8;;;;-76
2022/12/04 15:35:03;;;;;;;20.1;8.6;;;;;;;;;;;;;-75
2022/12/04 15:36:31;;;;;;;;;;;;;;;1.67;87.42773;102010.7;;;;-74
2022/12/04 15:41:41;;;;;;;;;;;;;;;1.69;87.53711;102008.1;;;;-75
2022/12/04 15:46:49;;;;;;;;;;;;;;;1.7;87.44434;102004;;;;-76
2022/12/04 15:56:15;;;;;;;;;;;;;;;1.73;87.49316;102012.4;;;;-76
2022/12/04 16:01:14;;;;;;;;;;;;;;;1.74;87.49316;102006.7;;;;-76
2022/12/04 16:05:17;;;;;;;18.8;8;;;;;;;;;;;;;-77
2022/12/04 16:06:33;;;;;;;;;;;;;;;1.83;87.48047;102003.1;;;;-75
2022/12/04 16:09:48;;;;;;;;;;;;;;;;;;;;;
2022/12/04 16:19:19;;;;;;;;;;;;;;;1.77;87.66211;102009.8;;;;-76
2022/12/04 16:24:13;;;;;;;;;;;;;;;1.77;87.55469;102015.2;;;;-76
2022/12/04 16:38:49;;;;;;;;;;;;;;;1.8;87.64648;102035.6;;;;-76
2022/12/04 16:43:24;;;;;;;;;;;;;;;1.82;87.52246;102043.4;;;;-76
2022/12/04 16:48:33;;;;;;;;;;;;;;;1.83;87.44824;102043.6;;;;-77
2022/12/04 16:53:40;;;;;;;;;;;;;;;1.84;87.64258;102040;;;;-75
2022/12/04 16:58:29;;;;;;;;;;;;;;;1.85;87.49316;102040.7;;;;-77
2022/12/04 17:03:26;;;;;;;;;;;;;;;1.85;87.60352;102029;;;;-76
2022/12/04 17:05:00;;;;;;;17.3;7.3;;;;;;;;;;;;;-75
2022/12/04 17:08:23;;;;;;;;;;;;;;;1.85;87.66992;102032.9;;;;-75
2022/12/04 17:13:24;;;;;;;;;;;;;;;1.87;87.64844;102040.3;;;;-76
2022/12/04 17:18:24;;;;;;;;;;;;;;;1.87;87.79102;102037.3;;;;-76
2022/12/04 17:23:23;;;;;;;;;;;;;;;1.89;87.63281;102047.4;;;;-76
2022/12/04 17:28:24;;;;;;;;;;;;;;;1.9;87.67773;102048.7;;;;-75
2022/12/04 17:33:24;;;;;;;;;;;;;;;1.9;87.63574;102047.5;;;;-75
2022/12/04 17:34:59;;;;;;;18.7;7.7;;;;;;;;;;;;;-76
2022/12/04 17:38:24;;;;;;;;;;;;;;;1.9;87.75488;102032.3;;;;-73
2022/12/04 17:43:25;;;;;;;;;;;;;;;1.93;87.63086;102038.6;;;;-75
2022/12/04 17:48:24;;;;;;;;;;;;;;;1.94;87.70801;102041.1;;;;-75
2022/12/04 17:53:23;;;;;;;;;;;;;;;1.96;87.74414;102037.8;;;;-75
2022/12/04 17:58:23;;;;;;;;;;;;;;;1.99;87.73926;102042.2;;;;-76
2022/12/04 18:03:23;;;;;;;;;;;;;;;2.01;87.84277;102047.4;;;;-76
2022/12/04 18:04:59;;;;;;;25.6;7.4;;;;;;;;;;;;;-75
2022/12/04 18:08:47;;;;;;;;;;;;;;;2.03;87.91992;102044.3;;;;-76
2022/12/04 18:13:27;;;;;;;;;;;;;;;2.04;88.08594;102057.4;;;;-75
2022/12/04 18:23:46;;;;;;;;;;;;;;;2.07;88.16699;102055;;;;-78
2022/12/04 18:31:44;;;;;;;;;;;;;;;2.1;88.16211;102051.4;;;;-76
2022/12/04 18:34:57;;;;;;;20.9;8;;;;;;;;;;;;;-75
2022/12/04 18:36:45;;;;;;;;;;;;;;;2.1;88.26172;102050.9;;;;-76
2022/12/04 18:41:44;;;;;;;;;;;;;;;2.11;88.29395;102052.6;;;;-76
2022/12/04 18:46:44;;;;;;;;;;;;;;;2.13;88.25586;102049.7;;;;-75
2022/12/04 18:51:45;;;;;;;;;;;;;;;2.14;88.26758;102052.1;;;;-76
2022/12/04 18:56:45;;;;;;;;;;;;;;;2.15;88.42383;102068.9;;;;-77
2022/12/04 19:01:45;;;;;;;;;;;;;;;2.16;88.47852;102062.1;;;;-75
2022/12/04 19:04:57;;;;;;;21.2;8.2;;;;;;;;;;;;;-75
2022/12/04 19:12:05;;;;;;;;;;;;;;;2.2;88.54199;102073.9;;;;-75
2022/12/04 19:16:16;;;;;;;;;;;;;;;2.3;88.45215;102070.3;;;;-74
2022/12/04 19:18:10;;;;;;;;;;;;;;;2.23;88.5459;102077.4;;;;-76
2022/12/04 19:23:15;;;;;;;;;;;;;;;2.24;88.51465;102076.6;;;;-74
2022/12/04 19:33:42;;;;;;;;;;;;;;;2.37;88.5752;102074.3;;;;-73
2022/12/04 19:35:09;;;;;;;18.5;7.7;;;;;;;;;;;;;-74
2022/12/04 19:43:45;;;;;;;;;;;;;;;2.4;88.60449;102072.3;;;;-75
2022/12/04 19:44:43;;;;;;;;;;;;;;;2.42;88.52148;102075.7;;;;-75
2022/12/04 19:52:32;;;;;;;;;;;;;;;2.35;88.76855;102081.3;;;;-75
2022/12/04 19:57:06;;;;;;;;;;;;;;;2.39;88.70898;102082.7;;;;-75
2022/12/04 20:02:06;;;;;;;;;;;;;;;2.4;88.91699;102083.7;;;;-76
2022/12/04 20:04:55;;;;;;;18.7;7.5;;;;;;;;;;;;;-75
2022/12/04 20:07:06;;;;;;;;;;;;;;;2.42;88.8252;102081.1;;;;-76
2022/12/04 20:12:06;;;;;;;;;;;;;;;2.44;89;102088;;;;-76
2022/12/04 20:17:07;;;;;;;;;;;;;;;2.46;88.88672;102091.4;;;;-74
2022/12/04 20:22:06;;;;;;;;;;;;;;;2.48;89.0332;102078.1;;;;-75
2022/12/04 20:27:07;;;;;;;;;;;;;;;2.49;89.0332;102075.8;;;;-75
2022/12/04 20:32:06;;;;;;;;;;;;;;;2.51;88.98242;102072.3;;;;-76
2022/12/04 20:34:57;;;;;;;19.4;7.6;;;;;;;;;;;;;-75
2022/12/04 20:37:06;;;;;;;;;;;;;;;2.53;88.97754;102072.7;;;;-75
2022/12/04 20:42:06;;;;;;;;;;;;;;;2.54;89.09863;102069.7;;;;-76
2022/12/04 20:47:06;;;;;;;;;;;;;;;2.56;89.04785;102076.1;;;;-75
2022/12/04 20:52:07;;;;;;;;;;;;;;;2.58;89.11719;102070.7;;;;-75
2022/12/04 20:57:06;;;;;;;;;;;;;;;2.58;89.16016;102071.8;;;;-75
2022/12/04 21:02:06;;;;;;;;;;;;;;;2.6;89.14258;102070.6;;;;-76
2022/12/04 21:04:53;;;;;;;20.3;7.9;;;;;;;;;;;;;-73
2022/12/04 21:07:06;;;;;;;;;;;;;;;2.64;89.22559;102070.6;;;;-79
2022/12/04 21:16:00;;;;;;;;;;;;;;;2.64;89.25879;102067;;;;-75
2022/12/04 21:17:08;;;;;;;;;;;;;;;2.67;89.25293;102072.2;;;;-75
2022/12/04 21:22:06;;;;;;;;;;;;;;;2.69;89.21387;102066.3;;;;-76
2022/12/04 21:27:07;;;;;;;;;;;;;;;2.71;89.17578;102076.5;;;;-74
2022/12/04 21:32:07;;;;;;;;;;;;;;;2.72;89.22266;102075.7;;;;-75
2022/12/04 21:34:53;;;;;;;19.7;7.9;;;;;;;;;;;;;-75
2022/12/04 21:37:06;;;;;;;;;;;;;;;2.74;89.35645;102074.7;;;;-76
2022/12/04 21:47:06;;;;;;;;;;;;;;;2.78;89.41895;102080.2;;;;-75
2022/12/04 21:52:07;;;;;;;;;;;;;;;2.8;89.57617;102077.7;;;;-76
2022/12/04 21:57:06;;;;;;;;;;;;;;;2.83;89.52734;102075.4;;;;-75
2022/12/04 22:02:06;;;;;;;;;;;;;;;2.86;89.38086;102072.7;;;;-75
2022/12/04 22:04:51;;;;;;;20.2;8.5;;;;;;;;;;;;;-76
2022/12/04 22:07:06;;;;;;;;;;;;;;;2.88;89.94922;102072.8;;;;-75
2022/12/04 22:12:07;;;;;;;;;;;;;;;2.88;89.56934;102071.3;;;;-75
2022/12/04 22:17:07;;;;;;;;;;;;;;;2.9;89.76855;102074.2;;;;-75
2022/12/04 22:22:06;;;;;;;;;;;;;;;2.93;89.61133;102078.9;;;;-75
2022/12/04 22:27:08;;;;;;;;;;;;;;;2.94;89.66797;102079.2;;;;-75
2022/12/04 22:32:06;;;;;;;;;;;;;;;2.96;89.61914;102080;;;;-74
2022/12/04 22:34:51;;;;;;;20.8;7.7;;;;;;;;;;;;;-75
2022/12/04 22:37:07;;;;;;;;;;;;;;;2.97;89.68555;102072.8;;;;-75
2022/12/04 22:42:07;;;;;;;;;;;;;;;2.98;89.70898;102079.9;;;;-75
2022/12/04 22:47:08;;;;;;;;;;;;;;;3.01;89.71484;102075.1;;;;-75
2022/12/04 22:52:06;;;;;;;;;;;;;;;3;89.96484;102082.1;;;;-75
2022/12/04 22:57:06;;;;;;;;;;;;;;;3.03;89.7207;102077.9;;;;-76
2022/12/04 23:02:07;;;;;;;;;;;;;;;3.04;89.65723;102081.4;;;;-75
2022/12/04 23:04:50;;;;;;;19;8.4;;;;;;;;;;;;;-74
2022/12/04 23:07:06;;;;;;;;;;;;;;;3.04;89.73145;102076.3;;;;-74
2022/12/04 23:12:07;;;;;;;;;;;;;;;3.05;89.67969;102076.3;;;;-75
2022/12/04 23:17:06;;;;;;;;;;;;;;;3.04;89.8291;102073.6;;;;-76
2022/12/04 23:22:06;;;;;;;;;;;;;;;3.07;89.86914;102076.4;;;;-75
2022/12/04 23:27:06;;;;;;;;;;;;;;;3.07;89.77148;102075.5;;;;-75
2022/12/04 23:32:06;;;;;;;;;;;;;;;3.08;89.91504;102068;;;;-75
2022/12/04 23:34:51;;;;;;;20.2;8.1;;;;;;;;;;;;;-76
2022/12/04 23:37:06;;;;;;;;;;;;;;;3.1;90.05957;102065.5;;;;-76
2022/12/04 23:42:06;;;;;;;;;;;;;;;3.1;89.95313;102063;;;;-75
2022/12/04 23:47:07;;;;;;;;;;;;;;;3.1;90.04004;102063.5;;;;-77
2022/12/04 23:52:06;;;;;;;;;;;;;;;3.1;89.89844;102060.1;;;;-76
2022/12/04 23:57:09;;;;;;;;;;;;;;;3.11;89.90918;102056.3;;;;-76
